createdAt,value
2022-10-04T00:24:42.295Z,76.64
2022-10-04T04:10:00.144Z,80.40
2022-10-04T04:45:09.420Z,79.90
2022-10-04T04:48:00.805Z,79.87
2022-10-04T04:58:14.084Z,79.51
2022-10-04T05:00:50.170Z,79.12
2022-10-04T05:03:42.004Z,79.71
2022-10-04T05:06:27.274Z,78.77
2022-10-04T05:08:56.747Z,78.00
2022-10-04T05:11:31.863Z,79.27
2022-10-04T05:14:13.167Z,78.62
2022-10-04T05:16:45.092Z,78.41
2022-10-04T05:19:18.622Z,77.45
2022-10-04T05:21:48.209Z,76.77
2022-10-04T05:24:22.904Z,76.78
2022-10-04T05:26:54.386Z,77.00
2022-10-04T05:29:25.540Z,77.03
2022-10-04T05:32:06.674Z,77.99
2022-10-04T05:35:01.877Z,77.20
2022-10-04T05:37:57.923Z,77.13
2022-10-04T05:40:40.400Z,76.16
2022-10-04T05:43:23.792Z,76.45
2022-10-04T05:46:08.302Z,75.05
2022-10-04T05:48:37.140Z,76.54
2022-10-04T05:53:53.394Z,75.99
2022-10-04T05:56:33.478Z,75.82
2022-10-04T05:59:06.458Z,75.99
2022-10-04T06:01:44.054Z,74.98
2022-10-04T06:04:40.144Z,75.42
2022-10-04T06:13:09.578Z,75.92
2022-10-04T06:16:08.687Z,75.68
2022-10-04T06:18:45.487Z,75.16
2022-10-04T06:21:31.618Z,74.48
2022-10-04T06:24:03.840Z,73.45
2022-10-04T06:26:40.963Z,74.24
2022-10-04T06:29:12.925Z,71.91
2022-10-04T06:43:33.323Z,70.99
2022-10-04T06:46:17.013Z,72.51
2022-10-04T06:48:55.525Z,73.77
2022-10-04T06:51:45.806Z,73.82
2022-10-04T06:54:50.341Z,72.46
2022-10-04T06:57:39.822Z,70.96
2022-10-04T07:00:28.959Z,72.02
2022-10-04T07:03:31.141Z,70.07
2022-10-04T07:06:07.897Z,70.13
2022-10-04T07:09:09.105Z,71.76
2022-10-04T07:14:40.391Z,69.31
2022-10-04T07:17:14.068Z,69.15
2022-10-04T07:19:44.652Z,71.18
2022-10-04T07:22:18.818Z,72.71
2022-10-04T07:24:50.707Z,70.22
2022-10-04T07:27:30.151Z,69.85
2022-10-04T07:30:09.392Z,71.41
2022-10-04T07:32:56.176Z,70.98
2022-10-04T07:35:59.315Z,68.69
2022-10-04T07:38:38.040Z,70.66
2022-10-04T07:41:12.561Z,71.12
2022-10-04T07:44:02.827Z,70.71
2022-10-04T07:46:45.295Z,71.21
2022-10-04T07:49:21.240Z,68.85
2022-10-04T07:52:13.380Z,68.38
2022-10-04T07:54:59.880Z,66.30
2022-10-04T07:57:58.945Z,68.94
2022-10-04T08:00:30.920Z,65.80
2022-10-04T08:06:20.702Z,65.55
2022-10-04T08:09:17.430Z,64.32
2022-10-04T08:11:56.412Z,61.63
2022-10-04T08:14:36.174Z,63.60
2022-10-04T08:17:16.005Z,60.75
2022-10-04T08:20:06.343Z,63.90
2022-10-04T08:22:56.325Z,63.25
2022-10-04T08:25:35.667Z,63.32
2022-10-04T08:28:36.056Z,61.29
2022-10-04T08:31:24.250Z,58.54
2022-10-04T08:34:07.234Z,59.65
2022-10-04T08:36:44.474Z,59.11
2022-10-04T08:39:27.035Z,59.87
2022-10-04T08:42:19.908Z,60.99
2022-10-04T08:45:15.154Z,62.04
2022-10-04T08:48:06.128Z,60.80
2022-10-04T08:50:53.631Z,62.38
2022-10-04T08:53:40.213Z,62.27
2022-10-04T08:56:24.568Z,61.64
2022-10-04T08:59:19.272Z,62.21
2022-10-04T09:02:09.308Z,60.32
2022-10-04T09:05:10.282Z,62.19
2022-10-04T09:08:26.548Z,55.99
2022-10-04T09:11:13.273Z,57.80
2022-10-04T09:13:53.013Z,57.85
2022-10-04T09:16:43.650Z,55.21
2022-10-04T09:19:29.426Z,60.31
2022-10-04T09:22:28.958Z,55.31
2022-10-04T09:25:27.762Z,56.61
2022-10-04T09:28:31.176Z,54.11
2022-10-04T09:31:46.686Z,53.11
2022-10-04T09:34:31.691Z,54.18
2022-10-04T09:37:46.029Z,53.50
2022-10-04T09:41:24.892Z,55.15
2022-10-04T09:44:13.244Z,53.08
2022-10-04T09:47:30.220Z,55.60
2022-10-04T09:50:30.644Z,53.94
2022-10-04T09:53:18.485Z,56.11
2022-10-04T09:56:17.765Z,58.25
2022-10-04T09:59:17.385Z,57.19
2022-10-04T10:02:17.908Z,57.96
2022-10-04T10:04:50.807Z,59.89
2022-10-04T10:07:38.706Z,60.64
2022-10-04T10:10:32.274Z,59.70
2022-10-04T10:13:33.723Z,60.71
2022-10-04T10:16:08.920Z,60.23
2022-10-04T10:18:48.624Z,58.73
2022-10-04T10:21:37.150Z,61.27
2022-10-04T10:24:19.981Z,59.63
2022-10-04T10:27:03.969Z,62.90
2022-10-04T10:32:41.015Z,74.24
2022-10-04T10:35:21.374Z,77.73
2022-10-04T10:37:59.939Z,79.12
2022-10-04T10:40:41.176Z,79.39
2022-10-04T10:43:26.757Z,79.26
2022-10-04T10:46:03.423Z,79.84
2022-10-04T10:48:44.091Z,80.15
2022-10-04T10:51:15.312Z,80.52
2022-10-04T10:54:11.693Z,81.41
2022-10-04T10:57:01.448Z,80.68
2022-10-04T10:59:47.703Z,81.16
2022-10-04T11:02:49.543Z,80.54
2022-10-04T11:05:37.205Z,81.31
2022-10-04T11:08:11.841Z,81.82
2022-10-04T11:10:56.041Z,82.84
2022-10-04T11:13:38.810Z,82.81
2022-10-04T11:16:16.495Z,82.68
2022-10-04T11:19:00.606Z,81.78
2022-10-04T11:21:43.416Z,82.22
2022-10-04T11:24:35.875Z,82.05
2022-10-04T11:27:13.878Z,82.08
2022-10-04T11:29:56.140Z,82.40
2022-10-04T11:32:45.257Z,82.84
2022-10-04T11:35:37.401Z,82.47
2022-10-04T11:38:11.294Z,83.11
2022-10-04T11:40:54.797Z,83.29
2022-10-04T11:43:32.669Z,82.76
2022-10-04T11:46:12.174Z,82.90
2022-10-04T11:48:48.780Z,83.50
2022-10-04T11:51:38.805Z,83.32
2022-10-04T11:54:15.097Z,83.47
2022-10-04T11:56:56.645Z,82.65
2022-10-04T11:59:32.236Z,83.14
2022-10-04T12:02:17.108Z,82.98
2022-10-04T12:04:55.994Z,82.90
2022-10-04T12:07:36.589Z,82.09
2022-10-04T12:10:17.110Z,81.51
2022-10-04T12:12:54.964Z,81.98
2022-10-04T12:15:36.285Z,81.32
2022-10-04T12:18:18.405Z,78.91
2022-10-04T12:21:02.124Z,79.62
2022-10-04T12:23:43.981Z,78.61
2022-10-04T12:26:32.463Z,77.23
2022-10-04T12:29:11.493Z,76.08
2022-10-04T12:31:43.528Z,72.11
2022-10-04T12:34:15.080Z,68.10
2022-10-04T12:36:53.739Z,71.50
2022-10-04T12:39:34.775Z,71.24
2022-10-04T12:42:15.762Z,71.52
2022-10-04T12:44:52.498Z,71.02
2022-10-04T12:47:45.001Z,68.38
2022-10-04T12:50:19.213Z,66.58
2022-10-04T12:52:51.831Z,68.74
2022-10-04T12:55:26.138Z,71.08
2022-10-04T12:57:58.144Z,69.69
2022-10-04T13:00:27.626Z,70.82
2022-10-04T13:03:10.658Z,68.88
2022-10-04T13:05:43.969Z,70.88
2022-10-04T13:08:19.814Z,69.84
2022-10-04T13:11:03.139Z,70.47
2022-10-04T13:13:47.238Z,72.19
2022-10-04T13:19:16.659Z,70.86
2022-10-04T13:22:03.306Z,70.27
2022-10-04T13:24:55.308Z,70.43
2022-10-04T13:27:30.530Z,69.36
2022-10-04T13:30:02.848Z,69.20
2022-10-04T13:32:34.918Z,68.48
2022-10-04T13:35:08.722Z,70.24
2022-10-04T13:37:43.867Z,71.05
2022-10-04T13:40:25.009Z,71.32
2022-10-04T13:43:02.416Z,71.55
2022-10-04T13:45:43.129Z,71.87
2022-10-04T13:48:21.640Z,71.42
2022-10-04T13:51:04.072Z,71.49
2022-10-04T13:53:55.987Z,71.56
2022-10-04T13:56:39.546Z,72.01
2022-10-04T13:59:14.540Z,70.71
2022-10-04T14:02:13.915Z,71.14
2022-10-04T14:05:16.316Z,71.47
2022-10-04T14:08:05.277Z,70.59
2022-10-04T14:10:51.348Z,71.08
2022-10-04T14:13:40.891Z,71.33
2022-10-04T14:16:26.813Z,70.21
2022-10-04T14:19:13.509Z,70.35
2022-10-04T14:22:06.242Z,68.89
2022-10-04T14:25:06.325Z,70.05
2022-10-04T14:27:43.592Z,70.21
2022-10-04T14:30:17.691Z,70.25
2022-10-04T14:33:02.147Z,70.50
2022-10-04T14:35:31.790Z,71.01
2022-10-04T14:38:13.718Z,71.13
2022-10-04T14:40:46.359Z,71.21
2022-10-04T14:43:25.092Z,70.76
2022-10-04T14:46:01.179Z,71.33
2022-10-04T14:48:47.485Z,70.13
2022-10-04T14:51:27.851Z,70.69
2022-10-04T14:54:00.942Z,70.42
2022-10-04T14:56:42.390Z,70.61
2022-10-04T14:59:23.119Z,71.18
2022-10-04T15:02:07.789Z,71.00
2022-10-04T15:04:37.774Z,71.65
2022-10-04T15:07:18.958Z,71.71
2022-10-04T15:09:59.044Z,71.64
2022-10-04T15:13:09.215Z,72.00
2022-10-04T15:15:52.538Z,71.72
2022-10-04T15:18:28.280Z,72.01
2022-10-04T15:20:58.859Z,72.07
2022-10-04T15:23:40.235Z,72.40
2022-10-04T15:26:42.369Z,72.38
2022-10-04T15:29:24.410Z,72.51
2022-10-04T15:31:58.784Z,72.61
2022-10-04T15:34:33.872Z,72.99
2022-10-04T15:37:10.206Z,72.95
2022-10-04T15:39:54.680Z,73.19
2022-10-04T15:42:27.097Z,73.32
2022-10-04T15:45:17.221Z,73.05
2022-10-04T15:47:56.030Z,73.04
2022-10-04T15:50:27.991Z,73.02
2022-10-04T15:53:18.935Z,73.04
2022-10-04T15:56:11.848Z,73.33
2022-10-04T15:58:55.885Z,73.53
2022-10-04T16:01:48.039Z,73.57
2022-10-04T16:04:21.513Z,73.67
2022-10-04T16:06:54.199Z,73.82
2022-10-04T16:09:28.968Z,73.85
2022-10-04T16:12:19.898Z,73.95
2022-10-04T16:14:57.341Z,73.86
2022-10-04T16:17:31.238Z,74.12
2022-10-04T16:20:07.744Z,74.02
2022-10-04T16:22:38.418Z,74.03
2022-10-04T16:25:21.448Z,74.17
2022-10-04T16:28:08.314Z,74.26
2022-10-04T16:30:42.028Z,74.26
2022-10-04T16:33:25.119Z,74.24
2022-10-04T16:36:03.942Z,74.37
2022-10-04T16:38:34.917Z,74.50
2022-10-04T16:41:12.216Z,74.45
2022-10-04T16:43:53.098Z,74.11
2022-10-04T16:46:29.469Z,73.46
2022-10-04T16:48:59.187Z,73.94
2022-10-04T16:51:48.704Z,73.59
2022-10-04T16:54:34.711Z,73.17
2022-10-04T16:57:17.211Z,73.46
2022-10-04T16:59:47.319Z,73.55
2022-10-04T17:02:30.568Z,73.67
2022-10-04T17:05:22.935Z,73.12
2022-10-04T17:08:06.271Z,73.30
2022-10-04T17:10:54.446Z,73.39
2022-10-04T17:13:30.944Z,72.96
2022-10-04T17:16:17.865Z,72.60
2022-10-04T17:19:22.909Z,72.01
2022-10-04T17:22:09.120Z,72.40
2022-10-04T17:24:46.750Z,71.74
2022-10-04T17:27:27.520Z,72.17
2022-10-04T17:30:13.370Z,71.69
2022-10-04T17:32:47.171Z,71.98
2022-10-04T17:35:24.642Z,72.09
2022-10-04T17:38:03.019Z,71.88
2022-10-04T17:40:47.029Z,72.13
2022-10-04T17:43:23.518Z,72.43
2022-10-04T17:46:01.796Z,72.48
2022-10-04T17:48:57.411Z,72.45
2022-10-04T17:52:02.651Z,72.50
2022-10-04T17:54:51.324Z,72.51
2022-10-04T17:57:22.898Z,72.43
2022-10-04T17:59:57.424Z,72.00
2022-10-04T18:02:31.590Z,72.28
2022-10-04T18:05:02.176Z,72.04
2022-10-04T18:07:38.877Z,72.48
2022-10-04T18:10:18.357Z,72.31
2022-10-04T18:13:11.723Z,72.43
2022-10-04T18:15:49.335Z,72.86
2022-10-04T18:18:19.901Z,73.29
2022-10-04T18:21:04.817Z,73.33
2022-10-04T18:23:35.939Z,73.80
2022-10-04T18:26:11.467Z,74.00
2022-10-04T18:28:40.223Z,74.25
2022-10-04T18:31:23.150Z,74.58
2022-10-04T18:34:21.008Z,74.79
2022-10-04T18:37:18.339Z,74.63
2022-10-04T18:39:55.759Z,74.32
2022-10-04T18:42:27.328Z,74.52
2022-10-04T18:44:59.376Z,74.89
2022-10-04T18:47:31.942Z,74.70
2022-10-04T18:50:15.853Z,74.63
2022-10-04T18:53:03.793Z,74.83
2022-10-04T18:55:39.525Z,74.23
2022-10-04T18:58:33.032Z,74.33
2022-10-04T19:01:21.563Z,73.92
2022-10-04T19:03:51.979Z,73.77
2022-10-04T19:06:24.359Z,73.50
2022-10-04T19:08:58.876Z,73.54
2022-10-04T19:11:31.671Z,73.86
2022-10-04T19:14:08.449Z,73.98
2022-10-04T19:16:55.651Z,74.50
2022-10-04T19:19:53.960Z,74.33
2022-10-04T19:22:34.240Z,74.48
2022-10-04T19:25:10.190Z,74.97
2022-10-04T19:27:45.670Z,75.07
2022-10-04T19:30:16.686Z,75.14
2022-10-04T19:32:57.075Z,74.90
2022-10-04T19:35:33.584Z,74.70
2022-10-04T19:38:06.392Z,74.25
2022-10-04T19:40:39.174Z,73.69
2022-10-04T19:43:12.566Z,73.81
2022-10-04T19:45:45.259Z,73.28
2022-10-04T19:48:23.362Z,72.63
2022-10-04T19:50:55.282Z,73.10
2022-10-04T19:53:25.442Z,72.84
2022-10-04T19:55:56.101Z,72.66
2022-10-04T19:58:30.184Z,72.79
2022-10-04T20:00:58.340Z,73.00
2022-10-04T20:03:26.845Z,73.09
2022-10-04T20:05:55.802Z,73.25
2022-10-04T20:08:38.666Z,73.32
2022-10-04T20:11:16.382Z,73.44
2022-10-04T20:13:46.833Z,73.62
2022-10-04T20:16:16.027Z,73.72
2022-10-04T20:19:05.268Z,73.90
2022-10-04T20:21:36.777Z,73.77
2022-10-04T20:24:05.321Z,73.86
2022-10-04T20:26:55.083Z,73.90
2022-10-04T20:29:42.422Z,73.56
2022-10-04T20:32:14.319Z,74.01
2022-10-04T20:34:49.552Z,74.14
2022-10-04T20:37:20.785Z,73.69
2022-10-04T20:39:58.446Z,73.77
2022-10-04T20:42:35.366Z,73.52
2022-10-04T20:45:07.456Z,73.41
2022-10-04T20:47:49.870Z,73.22
2022-10-04T20:50:20.554Z,73.53
2022-10-04T20:52:50.077Z,73.27
2022-10-04T20:55:25.506Z,73.42
2022-10-04T20:57:56.086Z,73.28
2022-10-04T21:00:27.392Z,73.24
2022-10-04T21:03:11.627Z,73.15
2022-10-04T21:05:42.015Z,73.14
2022-10-04T21:08:14.481Z,73.41
2022-10-04T21:10:57.656Z,73.09
2022-10-04T21:13:42.456Z,73.26
2022-10-04T21:16:10.757Z,73.58
2022-10-04T21:18:40.376Z,73.29
2022-10-04T21:21:10.868Z,73.21
2022-10-04T21:23:39.131Z,73.54
2022-10-04T21:26:19.887Z,73.72
2022-10-04T21:28:48.405Z,73.34
2022-10-04T21:31:16.445Z,73.49
2022-10-04T21:33:46.030Z,73.44
2022-10-04T21:36:14.078Z,73.65
2022-10-04T21:38:42.512Z,73.65
2022-10-04T21:41:10.586Z,73.46
2022-10-04T21:43:38.886Z,73.59
2022-10-04T21:46:06.965Z,73.72
2022-10-04T21:48:35.097Z,73.50
2022-10-04T21:51:04.844Z,73.47
2022-10-04T21:53:32.806Z,73.67
2022-10-04T21:56:00.856Z,73.55
2022-10-04T21:58:29.188Z,73.69
2022-10-04T22:00:57.553Z,73.46
2022-10-04T22:03:25.725Z,73.50
2022-10-04T22:05:53.735Z,73.47
2022-10-04T22:08:23.188Z,73.71
2022-10-04T22:10:55.429Z,73.48
2022-10-04T22:13:26.961Z,73.48
2022-10-04T22:15:55.460Z,73.38
2022-10-04T22:18:23.602Z,73.63
2022-10-04T22:20:51.575Z,73.60
2022-10-04T22:23:21.096Z,73.69
2022-10-04T22:25:50.816Z,73.83
2022-10-04T22:28:20.737Z,73.67
2022-10-04T22:30:49.949Z,73.93
2022-10-04T22:33:25.709Z,73.86
2022-10-04T22:35:54.028Z,73.74
2022-10-04T22:38:22.520Z,73.92
2022-10-04T22:40:52.196Z,73.78
2022-10-04T22:43:20.503Z,73.81
2022-10-04T22:45:48.583Z,73.96
2022-10-04T22:48:16.784Z,73.97
2022-10-04T22:50:44.915Z,73.94
2022-10-04T22:53:14.083Z,73.79
2022-10-04T22:55:42.594Z,73.85
2022-10-04T22:58:14.628Z,74.05
2022-10-04T23:00:43.683Z,73.87
2022-10-04T23:03:19.715Z,74.02
2022-10-04T23:05:47.822Z,73.92
2022-10-04T23:08:18.007Z,74.14
2022-10-04T23:10:47.866Z,73.96
2022-10-04T23:16:15.077Z,74.01
2022-10-04T23:18:43.192Z,73.86
2022-10-04T23:21:16.678Z,73.82
2022-10-04T23:23:44.673Z,73.95
2022-10-04T23:26:14.713Z,73.88
2022-10-04T23:28:42.742Z,73.89
2022-10-04T23:31:16.426Z,73.97
2022-10-04T23:33:44.589Z,74.07
2022-10-04T23:36:14.573Z,74.11
2022-10-04T23:38:45.091Z,74.23
2022-10-04T23:43:55.910Z,74.01
2022-10-04T23:46:25.484Z,73.89
2022-10-04T23:48:53.652Z,73.95
2022-10-04T23:51:22.045Z,73.95
2022-10-04T23:53:51.309Z,73.97
2022-10-04T23:56:21.274Z,74.00
2022-10-04T23:58:50.877Z,74.24
